Create Custom Reports and Graphics: Custom Report

JV-PS

Current Conditions

7/15/24 5:00 AM (-07:00)
Updated Every 15 Minutes
Precip 24Hr 0.18 In
Storm Total 0.18 In
Temp 78.6 °F   2.2
Daily Min Temp 75.6 °F   2.2
Time of Min Temp 0236
Daily Max Temp 79.4 °F   2.2
Time of Max Temp 0146
Wind Dir SW | 214 °
Wind Spd 4.9 mph   1.9
Wind Gust 8.8 mph   5.0
Daily Max Wind 9.6 mph   4.4
Time of Max Wind 0128
Max Wind Dir S | 188 °
RH 49 %   10
Dew Pt 57.7 °F   8.1
Barometric Press 29.89 inHg   0.02
Soil Temp 93.4 °F   2.0
Solar Rad 0 W/m2   0
Daily ETo 0.001 in   0.000
Daily Rain 0.00 In
Yest MinT 72.0 °F
Yest MaxT 98.8 °F
Yest MaxGst 28.1 mph
Yest ETo 0.22 In
Yest Precip 0.18 In
Month Precip 0.18 In
Season Precip 0.18 In
BatVolt 13.0 V   0.1
MinBV Day 13.0 V   0.1

Last 365 Observations

JV-PS

Daily Data | America/Los_Angeles
as of 7/15/24 5:04 AM PDT
Date Daily Max Temp (°F) Time of Max Temp Daily Min Temp (°F) Time of Min Temp Daily Rain (In) Month Precip (In) Season Precip (In) Daily ETo (in) 7 Day ETo (in) Daily Solar Rad (Cal/cm2) Daily Max Wind (mph) Time of Max Wind Max Wind Dir (°) Wind Run (Miles) Dew Pt (°F) Max RH (%) Min RH (%) Max Press (inHg) Time of Max Press Min Press (inHg) Time of Min Press Soil Temp (°F) Storm Total (In) Daily Max Rain Intensity (In/Hr) Time of Max Rain Intensity Max 1 Min Rain (In) Max 1 Min Rain Time Max 15 Min Rain (In) Max 15 Min Precip Time Max 60 Min Rain (In) Max 60 Min Rain Time Heat Index Max (°F) Heat Index Max Time Min Wind Chill (°F) Wind Chill Time MinBV Day (V)
7/14/24 98.8 1201 72.0 0613 0.18 0.18 0.18 0.225 2.37 486 28.1 1304 WNW | 292 91.8 56.0 72 21 29.95 0611 29.78 1515 94.6 0.18 2.02 1616 0.04 1616 0.17 1624 0.18 1708 96.8 1505 - - 12.9
7/13/24 104.2 1238 76.7 0512 0.00 0.00 0.00 0.314 2.61 515 34.8 1336 ESE | 114 149.2 49.1 39 12 29.89 0057 29.65 1632 95.7 - - - - - - - - - 100.3 1643 - - 12.9
7/12/24 109.9 1350 79.5 0448 0.00 0.00 0.00 0.306 2.63 617 25.6 1452 ENE | 65 102.8 41.7 27 11 29.74 0547 29.53 1517 95.6 - - - - - - - - - 105.5 1349 - - 12.9
7/11/24 111.3 1522 77.6 0323 0.00 0.00 0.00 0.309 2.70 610 21.9 2022 WNW | 287 111.4 31.8 17 7 29.78 0653 29.53 1734 95.7 - - - - - - - - - 104.1 1522 - - 12.9
7/10/24 110.1 1640 76.4 0551 0.00 0.00 0.00 0.352 2.79 695 22.1 1728 WNW | 298 125.3 30.8 19 6 29.78 0613 29.55 1728 95.9 - - - - - - - - - 103.0 1505 - - 12.9
7/9/24 112.4 1548 85.7 0055 0.00 0.00 0.00 0.427 2.79 742 29.2 1506 NNW | 344 179.3 32.9 19 6 29.72 0013 29.49 1600 95.7 - - - - - - - - - 104.7 1506 - - 12.9
7/8/24 112.4 1534 87.5 0421 0.00 0.00 0.00 0.455 2.70 731 24.3 1654 WNW | 282 213.2 35.0 18 6 29.66 0103 29.43 1654 95.2 - - - - - - - - - 105.5 1533 - - 12.9
7/7/24 111.8 1642 82.8 0226 0.00 0.00 0.00 0.474 2.60 751 27.4 1255 NNW | 345 215.8 34.7 19 6 29.73 0620 29.50 1732 94.7 - - - - - - - - - 104.4 1642 - - 12.9
7/6/24 110.6 1542 74.3 0549 0.00 0.00 0.00 0.337 2.50 752 17.1 0925 NW | 312 101.5 32.2 22 6 29.79 0548 29.54 1816 94.3 - - - - - - - - - 103.2 1542 - - 12.9
7/5/24 109.3 1611 83.8 0059 0.00 0.00 0.00 0.378 2.51 742 23.4 1433 ENE | 59 152.9 37.8 26 6 29.79 0554 29.55 1732 93.9 - - - - - - - - - 102.8 1357 - - 12.9
7/4/24 108.4 1536 84.2 0414 0.00 0.00 0.00 0.403 2.49 740 24.3 2055 W | 269 181.0 42.2 23 10 29.81 0620 29.59 1714 92.8 - - - - - - - - - 102.8 1535 - - 12.9
7/3/24 106.1 1521 73.3 0233 0.00 0.00 0.00 0.352 2.47 740 21.0 2125 WSW | 243 123.7 41.0 28 12 29.79 0623 29.57 1653 91.6 - - - - - - - - - 101.9 1542 - - 12.9
7/2/24 104.0 1555 63.6 0536 0.00 0.00 0.00 0.340 2.49 762 25.9 1542 N | 9 112.5 36.8 37 9 29.81 0555 29.50 1542 91.1 - - - - - - - - - 98.4 1555 - - 12.9
7/1/24 100.5 1536 61.8 0407 0.00 0.00 0.00 0.349 2.50 763 22.6 1737 NW | 321 132.6 33.5 31 8 29.86 0408 29.50 1737 91.1 - - - - - - - - - 95.1 1536 - - 12.9
6/30/24 103.4 1518 66.3 0558 0.00 0.00 7.84 0.364 2.48 762 27.4 1726 W | 266 138.4 27.3 19 7 29.87 0559 29.57 1715 91.2 - - - - - - - - - 98.6 1654 - - 12.9
6/29/24 101.1 1609 60.7 0537 0.00 0.00 7.84 0.344 2.44 777 20.4 1859 NNW | 328 119.7 23.0 23 6 29.81 0549 29.56 1728 91.4 - - - - - - - - - 95.2 1609 - - 12.9
6/28/24 101.0 1537 70.4 0252 0.00 0.00 7.84 0.357 2.45 770 28.1 1722 NNE | 23 137.2 34.5 38 8 29.69 0053 29.43 1722 92.0 - - - - - - - - - 95.3 1537 - - 12.9
6/27/24 103.0 1606 73.4 0059 0.00 0.00 7.84 0.381 2.41 736 29.6 1805 SW | 224 181.8 47.3 38 14 29.73 0601 29.43 1714 92.1 - - - - - - - - - 99.3 1521 - - 12.9
6/26/24 103.6 1653 78.4 0612 0.00 0.00 7.84 0.366 2.35 724 26.1 2323 W | 272 178.5 51.8 40 16 29.80 0618 29.55 1654 91.6 - - - - - - - - - 100.6 1653 - - 12.9
6/25/24 103.4 1542 79.8 0600 0.00 0.00 7.84 0.353 2.31 648 25.6 1245 SE | 146 168.0 53.9 39 20 29.78 2350 29.54 1725 90.9 - - - - - - - - - 102.5 1542 - - 12.9
6/24/24 104.8 1458 78.0 0554 0.00 0.00 7.84 0.339 2.25 606 23.7 2006 WNW | 282 152.1 53.3 39 19 29.79 0554 29.54 1730 90.1 - - - - - - - - - 103.5 1458 - - 12.9
6/23/24 103.4 1546 71.0 0552 0.00 0.00 7.84 0.322 2.33 674 23.7 1824 NW | 311 121.5 51.3 43 18 29.85 0549 29.55 1800 88.7 - - - - - - - - - 101.8 1546 - - 12.9
6/22/24 104.6 1505 61.6 0514 0.00 0.00 7.84 0.352 2.38 733 30.2 1325 SE | 127 138.6 40.1 32 12 29.81 0541 29.54 1606 87.6 - - - - - - - - - 100.9 1505 - - 12.9
6/21/24 100.3 1604 62.1 0549 0.00 0.00 7.84 0.316 2.48 756 25.6 1553 ESE | 122 106.8 35.5 35 10 29.73 0029 29.42 1728 86.9 - - - - - - - - - 95.1 1700 - - 12.9
6/20/24 96.3 1618 64.3 0526 0.00 0.00 7.84 0.323 2.54 744 22.4 1929 NW | 317 129.2 37.1 33 12 29.74 0556 29.43 1758 86.4 - - - - - - - - - 91.7 1556 - - 12.9
6/19/24 92.6 1649 56.4 0549 0.00 0.00 7.84 0.320 2.57 744 18.8 1719 NW | 312 134.3 34.2 38 12 29.78 0549 29.51 1725 86.0 - - - - - - - - - 88.2 1649 - - 12.9
6/18/24 89.3 1749 58.9 0525 0.00 0.00 7.84 0.297 2.60 757 23.0 0129 W | 273 127.9 26.5 35 7 29.73 0525 29.50 1748 85.9 - - - - - - - - - 85.4 1749 - - 12.9
6/17/24 91.7 1501 65.1 0527 0.00 0.00 7.84 0.415 2.63 753 36.0 1542 NW | 308 318.9 39.6 45 13 29.62 0059 29.34 1548 87.0 - - - - - - - - - 87.4 1501 - - 12.9
6/16/24 95.5 1535 63.0 0530 0.00 0.00 7.84 0.375 2.52 754 25.6 1922 W | 278 200.5 35.8 40 10 29.68 0558 29.39 1734 87.6 - - - - - - - - - 90.7 1553 - - 12.9
6/15/24 102.0 1604 65.2 0421 0.00 0.00 7.84 0.446 2.47 770 29.8 0932 W | 275 232.8 31.0 28 8 29.80 0421 29.45 1601 88.1 - - - - - - - - - 96.2 1602 - - 12.9
6/14/24 101.0 1639 73.4 0529 0.00 0.00 7.84 0.381 2.38 749 27.0 2030 W | 278 190.3 39.2 33 10 29.82 0626 29.57 1745 87.5 - - - - - - - - - 95.8 1639 - - 12.9
6/13/24 95.8 1418 61.6 0531 0.00 0.00 7.84 0.358 2.36 762 27.2 1301 SE | 127 156.1 31.1 35 7 29.86 0604 29.63 1627 87.4 - - - - - - - - - 90.9 1418 - - 12.9
6/12/24 99.2 1430 62.2 0537 0.00 0.00 7.84 0.346 2.35 764 28.1 1311 ESE | 119 125.8 34.3 33 8 29.84 0603 29.56 1733 87.4 - - - - - - - - - 94.0 1535 - - 12.9
6/11/24 99.4 1517 62.3 0434 0.00 0.00 7.84 0.323 2.33 758 21.9 1444 ESE | 105 104.1 34.6 33 10 29.85 0553 29.58 1748 87.0 - - - - - - - - - 94.5 1517 - - 12.9
6/10/24 97.0 1544 57.1 0558 0.00 0.00 7.84 0.305 2.32 765 15.6 1637 ESE | 102 98.6 31.4 31 9 29.89 0604 29.59 1733 86.9 - - - - - - - - - 91.9 1544 - - 12.9
6/9/24 95.6 1423 60.3 0543 0.00 0.00 7.84 0.327 2.36 727 23.4 1914 NW | 312 133.0 30.3 33 7 29.81 0602 29.57 1554 87.5 - - - - - - - - - 90.6 1423 - - 12.9
6/8/24 99.7 1506 71.6 0244 0.00 0.00 7.84 0.359 2.38 742 22.4 1609 W | 279 156.4 37.1 41 6 29.72 0606 29.50 1714 87.7 - - - - - - - - - 94.5 1427 - - 12.9
6/7/24 101.3 1346 66.4 0533 0.00 0.00 7.84 0.359 2.37 731 27.0 1809 NW | 306 154.4 45.1 37 15 29.74 0533 29.47 1645 87.2 - - - - - - - - - 97.6 1553 - - 12.9
6/6/24 103.6 1543 69.0 0514 0.00 0.00 7.84 0.343 2.33 738 22.1 1532 SSE | 153 117.6 41.4 37 9 29.77 0542 29.50 1746 86.1 - - - - - - - - - 99.1 1301 - - 12.9
6/5/24 102.3 1529 66.1 0428 0.00 0.00 7.84 0.328 2.31 732 21.0 1339 ENE | 75 111.2 42.8 37 13 29.81 0555 29.57 1738 84.7 - - - - - - - - - 98.2 1529 - - 12.9
6/4/24 94.9 1612 62.4 0608 0.00 0.00 7.84 0.309 2.33 724 20.6 1354 E | 100 126.1 45.2 54 16 29.78 0608 29.58 1747 83.8 - - - - - - - - - 91.0 1611 - - 12.9
6/3/24 95.8 1549 64.6 0551 0.00 0.00 7.84 0.347 2.36 682 26.3 1923 WNW | 294 192.1 42.5 47 15 29.78 0554 29.50 1641 83.5 - - - - - - - - - 91.4 1549 - - 12.9
6/2/24 93.5 1741 62.3 0548 0.00 0.00 7.84 0.344 2.30 734 26.3 2027 WNW | 285 211.7 38.9 47 12 29.74 0548 29.51 1801 83.2 - - - - - - - - - 88.9 1741 - - 12.9
6/1/24 94.3 1547 61.3 0459 0.00 0.00 7.84 0.357 2.23 753 26.7 1902 WNW | 297 177.7 35.0 29 12 29.76 0459 29.52 1608 83.0 - - - - - - - - - 89.7 1547 - - 12.9
5/31/24 95.9 1602 57.4 0522 0.00 0.00 7.84 0.312 2.19 750 21.0 1320 ESE | 120 111.6 35.4 43 9 29.82 0529 29.52 1742 82.3 - - - - - - - - - 91.1 1602 - - 12.9
5/30/24 95.7 1514 58.2 0544 0.00 0.00 7.84 0.325 2.18 750 25.4 1506 ESE | 106 129.4 35.4 45 10 29.91 0544 29.59 1745 81.2 - - - - - - - - - 90.9 1514 - - 12.9
5/29/24 92.4 1707 63.8 0506 0.00 0.00 7.84 0.354 2.23 750 25.2 0949 NW | 305 215.4 37.6 39 13 29.89 0551 29.64 1747 80.5 - - - - - - - - - 88.0 1707 - - 12.9
5/28/24 91.2 1521 58.3 0534 0.00 0.00 7.84 0.336 2.19 745 23.9 1825 NW | 308 169.6 29.9 29 9 29.93 0534 29.68 1656 79.7 - - - - - - - - - 86.9 1521 - - 12.9
5/27/24 91.3 1447 54.0 0503 0.00 0.00 7.84 0.288 2.12 748 22.6 1444 E | 91 99.6 28.9 35 10 29.94 0616 29.68 1720 78.6 - - - - - - - - - 87.0 1447 - - 12.9
5/26/24 86.5 1514 51.3 0511 0.00 0.00 7.84 0.276 2.17 749 17.3 1400 N | 350 112.9 32.3 60 11 29.91 0511 29.67 1822 77.6 - - - - - - - - - 83.0 1514 - - 12.9
5/25/24 81.3 1543 54.2 0332 0.00 0.00 7.84 0.313 2.27 753 28.5 0505 WNW | 282 246.7 35.9 60 13 29.86 0049 29.63 1642 78.0 - - - - - - - - - 80.0 - - - 12.9
5/24/24 83.6 1511 57.4 0051 0.00 0.00 7.84 0.297 2.34 674 30.2 1624 NW | 314 214.4 38.9 59 17 29.75 0059 29.55 1529 78.6 - - - - - - - - - 80.9 1511 - - 12.9
5/23/24 88.2 1557 61.1 0609 0.00 0.00 7.84 0.374 2.38 749 33.3 1725 WNW | 300 239.9 32.7 44 11 29.74 0054 29.52 1643 78.8 - - - - - - - - - 84.4 1557 - - 12.9
5/22/24 87.2 1551 58.1 0529 0.00 0.00 7.84 0.320 2.36 737 24.6 1713 NNW | 327 164.3 30.6 41 13 29.85 0542 29.58 1627 78.3 - - - - - - - - - 83.6 1551 - - 12.9
5/21/24 80.8 1726 56.1 0204 0.00 0.00 7.84 0.263 2.31 736 24.1 0248 W | 276 128.7 30.3 45 13 29.86 0646 29.68 1726 77.9 - - - - - - - - - - - - - 12.9
5/20/24 81.5 1413 56.2 0244 0.00 0.00 7.84 0.339 2.34 744 29.6 1439 NW | 305 249.1 33.0 52 13 29.81 0059 29.60 1609 78.8 - - - - - - - - - 80.0 - - - 12.9
5/19/24 89.1 1458 58.9 0536 0.00 0.00 7.84 0.378 2.30 746 31.1 1650 WNW | 300 244.0 26.8 42 10 29.86 0614 29.62 1533 79.3 - - - - - - - - - 85.2 1458 - - 12.9
5/18/24 89.8 1440 60.9 0241 0.00 0.00 7.84 0.379 2.22 718 33.1 1836 WSW | 248 235.6 25.2 33 8 29.82 2311 29.60 1558 79.9 - - - - - - - - - 85.8 1440 - - 12.9
5/17/24 92.2 1451 64.2 0558 0.00 0.00 7.84 0.342 2.11 730 22.6 1651 W | 275 185.0 37.6 41 12 29.79 0558 29.52 1651 79.5 - - - - - - - - - 87.9 1451 - - 12.9
5/16/24 92.7 1623 65.1 0556 0.00 0.00 7.84 0.354 2.02 732 23.9 0125 W | 264 211.8 38.2 45 10 29.78 0621 29.54 1831 78.3 - - - - - - - - - 88.2 1620 - - 13.0
5/15/24 88.8 1557 62.3 0529 0.00 0.00 7.84 0.276 1.92 571 23.9 1923 WNW | 288 155.2 36.8 37 15 29.75 0800 29.52 1732 77.3 - - - - - - - - - 84.9 1537 - - 12.9
5/14/24 88.3 1538 52.1 0516 0.00 0.00 7.84 0.288 1.89 707 28.5 1536 NE | 46 122.9 32.1 43 13 29.85 0553 29.53 1537 76.6 - - - - - - - - - 84.5 1538 - - 12.9
5/13/24 89.3 1309 58.9 0503 0.00 0.00 7.84 0.308 1.94 700 23.4 1554 SE | 125 139.1 30.9 33 10 29.85 0604 29.60 1716 75.7 - - - - - - - - - 85.3 1309 - - 12.9
5/12/24 88.2 1452 58.6 0606 0.00 0.00 7.84 0.293 1.86 729 28.7 1451 SW | 214 123.5 30.6 36 11 29.88 0605 29.61 1451 74.0 - - - - - - - - - 84.4 1452 - - 12.9
5/11/24 81.6 1624 50.8 0517 0.00 0.00 7.84 0.271 1.80 693 20.4 1232 NNW | 343 124.1 30.2 44 12 29.92 0517 29.67 1812 73.2 - - - - - - - - - 80.0 - - - 12.9
5/10/24 78.4 1549 43.5 0556 0.00 0.00 7.84 0.256 1.82 680 35.3 1759 NW | 312 103.6 27.9 44 15 30.00 0556 29.73 1626 72.6 - - - - - - - - - - - 43.5 0556 12.8
5/9/24 75.5 1614 41.3 0425 0.00 0.00 7.84 0.248 1.84 730 19.5 1311 NW | 325 106.9 20.5 34 14 29.95 0518 29.76 1602 72.2 - - - - - - - - - - - 40.4 0422 12.9
5/8/24 72.4 1610 49.4 2356 0.00 0.00 7.84 0.239 1.87 725 20.4 1525 NNE | 18 114.5 20.5 47 12 29.90 0630 29.69 1740 72.4 - - - - - - - - - - - 47.5 0027 12.9
5/7/24 84.6 1529 47.4 0200 0.00 0.00 7.84 0.340 1.92 731 29.2 1635 WNW | 297 232.1 24.6 44 7 29.91 0201 29.54 1623 71.7 - - - - - - - - - 81.7 1529 44.3 0205 12.9
5/6/24 75.1 1716 41.8 0426 0.00 0.00 7.84 0.229 1.84 730 19.3 2126 W | 272 122.2 24.6 48 14 30.04 0629 29.76 1809 71.1 - - - - - - - - - - - 37.3 0443 12.9
5/5/24 61.1 1744 44.9 0023 0.00 0.00 7.84 0.230 1.87 715 44.9 1540 WNW | 287 346.7 29.4 67 14 30.00 0023 29.61 0351 73.6 - - - - - - - - - - - 39.9 0023 12.9
5/4/24 82.9 1342 52.3 0516 0.00 0.00 7.84 0.293 1.87 619 33.8 1933 W | 262 231.5 30.7 48 9 29.78 0522 29.51 1506 74.6 - - - - - - - - - 80.3 1342 - - 12.9
5/3/24 83.0 1615 53.8 0406 0.00 0.00 7.84 0.270 1.84 712 18.8 2209 WNW | 285 128.5 27.3 33 11 29.80 0709 29.56 1744 74.0 - - - - - - - - - 80.3 1615 - - 12.9
5/2/24 83.0 1601 46.9 0557 0.00 0.00 7.84 0.280 1.84 710 23.2 2148 WNW | 293 149.3 22.7 36 9 29.92 0556 29.60 1816 73.4 - - - - - - - - - 80.3 1601 44.2 0557 12.9
5/1/24 81.3 1632 53.6 0547 0.00 0.00 7.84 0.292 1.82 711 25.6 1526 N | 6 190.7 26.1 57 8 29.80 0522 29.57 1526 73.3 - - - - - - - - - 80.0 - - - 12.9
4/30/24 83.6 1643 47.6 0603 0.00 0.08 7.84 0.264 1.80 701 23.4 2037 NW | 312 143.6 35.4 60 17 29.89 0603 29.55 1805 72.5 - - - - - - - - - 80.9 1642 44.8 0603 12.9
4/29/24 81.2 1558 48.1 0604 0.00 0.08 7.84 0.251 1.80 697 25.6 2057 W | 274 153.3 37.5 63 17 29.94 0604 29.61 1759 71.3 - - - - - - - - - - - 46.1 0605 12.9
4/28/24 78.6 1503 47.3 0625 0.00 0.08 7.84 0.234 1.81 701 22.4 2157 WNW | 303 122.1 33.1 57 15 30.01 0627 29.73 1758 69.9 - - - - - - - - - - - 45.6 0601 12.9
4/27/24 72.3 1707 50.0 0547 0.00 0.08 7.84 0.263 1.85 704 28.9 0244 WNW | 303 291.5 31.8 54 16 29.96 2348 29.76 1707 69.5 - - - - - - - - - - - 43.9 0548 12.9
4/26/24 66.9 1350 52.4 0059 0.01 0.08 7.84 0.267 1.82 694 44.9 1447 NW | 315 466.7 35.1 56 27 29.84 0101 29.60 1616 70.8 - - 1413 - 1635 - 1649 - 1734 - - - - 12.9
4/25/24 71.2 1323 50.6 0616 0.00 0.07 7.83 0.261 1.83 690 32.9 1036 W | 268 329.5 36.0 61 24 29.88 0648 29.71 1612 72.3 - - - - - - - - - - - - - 12.9
4/24/24 78.3 1459 47.6 0330 0.00 0.07 7.83 0.270 1.79 694 27.6 2029 WSW | 258 203.0 30.9 56 14 29.95 0617 29.67 1618 73.1 - - - - - - - - - - - 45.0 0347 12.9
4/23/24 83.3 1515 49.5 0539 0.00 0.07 7.83 0.265 1.76 689 27.4 1805 WNW | 303 128.7 30.1 48 12 29.88 0043 29.62 1514 73.5 - - - - - - - - - 80.6 1514 46.9 0539 12.9
4/22/24 88.7 1452 51.2 0611 0.00 0.07 7.83 0.262 1.70 675 27.8 1426 NW | 324 103.1 36.2 63 14 29.87 0631 29.53 1612 73.0 - - - - - - - - - 84.9 1452 - - 12.9
4/21/24 89.0 1421 52.9 0415 0.00 0.07 7.83 0.274 1.64 667 22.1 1459 SE | 129 115.1 37.8 61 12 29.99 0414 29.68 1737 72.0 - - - - - - - - - 85.1 1421 - - 12.9
4/20/24 86.9 1607 53.3 0625 0.00 0.07 7.83 0.233 1.56 661 23.9 1623 ESE | 120 90.0 38.6 60 13 29.95 0059 29.71 1623 70.5 - - - - - - - - - 83.4 1607 - - 12.9
4/19/24 81.9 1525 50.2 0607 0.00 0.07 7.83 0.269 1.53 666 20.0 1150 NW | 321 168.0 34.8 48 15 29.88 0637 29.62 1640 69.3 - - - - - - - - - - - - - 12.9
4/18/24 84.6 1527 52.9 0349 0.00 0.07 7.83 0.226 1.51 549 22.8 1720 NW | 313 110.5 29.8 49 12 29.91 0645 29.66 1547 68.6 - - - - - - - - - 81.6 1526 - - 12.9
4/17/24 85.1 1548 45.1 0557 0.00 0.07 7.83 0.240 1.53 670 15.3 1048 WNW | 294 93.1 32.1 57 13 30.05 0557 29.70 1719 66.7 - - - - - - - - - 82.0 1548 43.6 0553 12.9
4/16/24 78.0 1744 36.1 0553 0.00 0.07 7.83 0.206 1.49 673 12.5 1355 NE | 55 65.4 28.7 66 14 30.16 0553 29.81 1735 64.8 - - - - - - - - - - - 33.1 0552 12.8
4/15/24 67.5 1430 42.1 0622 0.00 0.07 7.83 0.200 1.51 670 25.9 0713 WNW | 285 191.5 30.7 70 22 30.08 0019 29.89 1707 64.5 - - - - - - - - - - - 34.3 0608 12.9
4/14/24 64.3 1446 33.6 0614 0.00 0.07 7.83 0.190 1.51 647 25.2 1548 SW | 216 162.2 28.9 87 20 30.12 0613 29.85 1644 65.4 - - - - - - - - - - - 30.2 0637 12.8
4/13/24 72.8 1524 36.4 0632 0.00 0.07 7.83 0.207 1.48 663 29.6 1606 S | 190 137.3 31.6 80 17 30.03 0027 29.67 1606 66.2 - - - - - - - - - - - 33.3 0624 12.8
4/12/24 81.2 1249 43.8 0644 0.00 0.07 7.83 0.244 1.43 647 30.0 1327 SSE | 151 125.9 32.2 68 12 29.90 0041 29.57 1503 65.9 - - - - - - - - - 80.0 - 42.0 0642 12.9
4/11/24 82.8 1535 44.6 0638 0.00 0.07 7.83 0.245 1.33 655 19.3 1505 ENE | 77 108.4 31.2 64 13 30.05 0232 29.66 1757 64.0 - - - - - - - - - 80.2 1535 42.6 0635 12.9
4/10/24 79.2 1709 40.2 0519 0.00 0.07 7.83 0.205 1.29 654 12.3 1359 NE | 54 62.6 26.2 56 13 30.16 0519 29.85 1755 61.5 - - - - - - - - - - - 38.9 0601 12.8
4/9/24 70.8 1625 42.4 0543 0.00 0.07 7.83 0.221 1.27 662 21.0 1040 NW | 311 125.3 19.4 43 14 30.15 0719 29.94 1729 59.8 - - - - - - - - - - - 38.9 0619 12.9
4/8/24 63.7 1520 38.2 0633 0.00 0.07 7.83 0.199 1.23 586 26.5 1443 NNW | 340 194.8 22.0 67 14 30.07 0052 29.85 1533 59.3 - - - - - - - - - - - 32.5 0633 12.8
4/7/24 64.4 1621 31.7 0633 0.00 0.07 7.83 0.162 1.16 587 24.6 2203 W | 259 109.2 29.0 89 22 30.19 0633 29.80 1824 58.4 - - - - - - - - - - - 28.4 0627 12.8
4/6/24 59.0 1616 32.4 0643 0.00 0.07 7.83 0.156 1.09 649 17.5 0304 W | 269 116.2 26.8 83 23 30.23 0744 30.05 1734 57.8 - - - - - - - - - - - 24.8 0304 12.8
4/5/24 55.2 1331 33.6 2008 0.07 0.07 7.83 0.150 1.01 522 33.8 0526 SSW | 201 266.7 23.7 93 20 30.08 0055 29.71 0210 61.0 - 0.15 1926 - 2012 0.02 2009 0.06 2021 - - 22.6 1958 12.8
4/4/24 71.5 1639 38.2 0638 0.00 0.00 7.76 0.196 1.04 567 36.2 1627 WNW | 295 146.9 31.1 82 14 29.94 0116 29.48 1627 61.9 - - - - - - - - - - - 33.4 0048 12.9
4/3/24 74.6 1622 38.9 0537 0.00 0.00 7.76 0.189 1.04 634 15.3 1847 NW | 320 69.3 33.8 77 20 30.31 0101 29.81 1815 60.1 - - - - - - - - - - - 35.9 0537 12.8
4/2/24 69.1 1600 38.9 0604 0.00 0.00 7.76 0.180 1.02 626 21.9 1341 NNE | 24 85.8 32.8 83 21 30.31 0059 30.12 0110 57.8 - - - - - - - - - - - 35.9 0602 12.8
4/1/24 62.3 1651 41.3 0137 0.00 0.00 7.76 0.133 1.05 448 23.2 1358 NNW | 328 126.5 35.4 88 31 30.13 0059 29.82 0108 56.1 - - - - - - - - - - - 37.9 0301 12.8
3/31/24 54.2 1636 33.0 0307 0.00 0.64 7.76 0.088 1.09 379 12.1 1619 ESE | 123 54.8 35.5 95 47 29.83 0657 29.65 1822 56.0 - - - - - - - - - - - 28.0 0252 12.8
3/30/24 54.0 0818 37.3 2322 0.18 0.64 7.76 0.073 1.18 269 25.2 1019 WNW | 288 119.3 35.0 90 44 29.79 1103 29.58 0818 59.6 0.18 0.25 1029 - 1350 0.05 1032 0.12 1055 - - 31.1 1119 12.8
3/29/24 70.6 1409 40.2 0010 0.00 0.45 7.57 0.186 1.26 544 26.1 1440 W | 278 119.7 26.4 71 14 29.87 0628 29.56 1619 60.8 - - - - - - - - - - - 34.2 0011 12.9
3/28/24 71.7 1508 36.9 0647 0.00 0.45 7.57 0.199 1.25 596 26.3 0002 WSW | 242 131.3 30.3 75 11 30.09 0647 29.72 1617 60.1 - - - - - - - - - - - 33.4 0622 12.8
3/27/24 71.6 1500 35.6 0700 0.00 0.45 7.57 0.170 1.25 590 21.0 1225 SE | 139 84.6 29.5 74 20 30.21 0701 29.90 1759 58.8 - - - - - - - - - - - 35.0 0647 12.8
3/26/24 64.3 1631 44.7 0703 0.00 0.45 7.57 0.203 1.24 599 28.9 0416 W | 275 243.3 29.6 61 16 30.10 0051 29.83 0416 57.9 - - - - - - - - - - - 35.9 0641 12.9
3/25/24 61.4 1527 41.0 0605 0.00 0.45 7.57 0.179 1.19 556 29.8 2120 WNW | 299 283.8 30.4 66 23 29.92 2350 29.70 1541 57.7 - - - - - - - - - - - 33.0 0702 12.8
3/24/24 56.9 1529 40.9 0637 0.00 0.45 7.57 0.173 1.09 590 37.7 1106 W | 276 402.0 29.8 74 31 29.81 0056 29.57 1529 59.0 - - - - - - - - - - - 30.3 0340 12.8
3/23/24 65.7 1035 43.0 0051 0.00 0.45 7.57 0.155 1.04 362 34.6 1807 SW | 228 213.9 30.4 72 19 29.85 0104 29.53 1716 61.1 - - - - - - - - - - - 32.8 0054 12.9
3/22/24 73.7 1545 39.3 0631 0.00 0.45 7.57 0.176 0.93 558 16.7 2011 W | 268 78.3 28.6 73 12 30.11 0643 29.78 1750 60.2 - - - - - - - - - - - 36.9 0643 12.9
3/21/24 74.1 1502 47.3 0001 0.00 0.45 7.57 0.196 0.80 568 21.3 1658 NW | 314 117.6 33.4 64 16 30.09 0001 29.85 1658 59.0 - - - - - - - - - - - 44.8 0029 12.9
3/20/24 72.1 1608 41.4 0527 0.00 0.45 7.57 0.164 0.73 555 15.3 1633 NNW | 330 72.7 37.6 84 21 30.06 0709 29.81 1619 56.6 - - - - - - - - - - - 38.7 0417 12.9
3/19/24 67.7 1603 39.5 0606 0.00 0.45 7.57 0.153 0.72 540 15.1 1628 NE | 48 73.0 37.5 86 28 30.12 0656 29.88 1655 54.0 - - - - - - - - - - - 37.6 0607 12.8
3/18/24 61.4 1800 40.6 0644 0.03 0.45 7.57 0.072 0.74 230 18.0 1325 ESE | 119 75.6 39.4 89 36 30.12 0644 29.96 1725 53.7 - 0.36 1525 - 1526 0.02 1527 0.03 1612 - - 38.2 0642 12.9
3/17/24 61.4 1606 41.3 0419 0.00 0.42 7.54 0.121 0.82 474 13.4 1357 NW | 316 72.9 38.3 85 33 30.10 0019 29.95 1639 52.1 - - - - - - - - - - - 39.3 0441 12.8
3/16/24 51.8 1801 38.4 0209 0.15 0.42 7.54 0.049 0.81 176 20.6 1522 W | 277 99.8 38.0 90 54 30.09 2323 29.96 1113 52.2 0.35 0.14 1258 - 1422 0.03 1311 0.09 1345 - - 34.2 0445 12.8
3/15/24 46.8 1358 41.0 2304 0.09 0.27 7.39 0.041 0.90 123 17.3 0950 WNW | 301 140.1 36.7 88 57 30.00 2339 29.77 0553 54.9 0.20 0.06 1515 - 1618 0.02 1521 0.04 1601 - - 35.4 0420 12.8
3/14/24 52.0 1515 35.7 0557 0.11 0.18 7.30 0.126 1.00 417 23.2 1200 N | 6 155.1 21.8 87 25 30.07 0556 29.78 1630 56.8 0.11 0.12 2131 - 0055 0.03 2135 0.05 2217 - - 29.8 0652 12.8
3/13/24 62.1 1506 45.8 0059 0.00 0.07 7.18 0.161 0.99 508 33.8 0143 W | 263 242.8 34.4 67 32 30.01 0857 29.81 1710 57.2 - - - - - - - - - - - 40.5 0043 12.9
3/12/24 67.8 1532 38.3 0440 0.00 0.07 7.18 0.176 0.97 491 37.5 1603 W | 278 255.0 36.1 77 29 30.07 0730 29.79 1542 56.7 - - - - - - - - - - - 34.1 0440 12.8
3/11/24 65.2 1600 38.4 0706 0.00 0.07 7.18 0.143 0.95 471 18.0 1655 NW | 304 108.1 30.0 70 23 30.04 2247 29.86 1626 56.3 - - - - - - - - - - - 34.6 0513 12.8
3/10/24 65.7 1800 32.6 0522 0.00 0.07 7.18 0.121 0.98 429 11.4 1435 W | 269 67.0 25.9 73 19 30.18 0522 29.87 1800 55.9 - - - - - - - - - - - 31.0 0535 12.8
3/9/24 63.1 1527 30.3 0513 0.00 0.07 7.18 0.138 1.01 513 13.6 2100 ESE | 109 72.7 20.6 71 15 30.26 0704 29.97 1603 55.6 - - - - - - - - - - - 25.8 0520 12.8
3/8/24 61.4 1458 38.8 2359 0.00 0.07 7.18 0.139 1.04 523 16.7 0109 W | 274 116.1 29.0 79 22 30.22 2359 30.01 0007 55.8 - - - - - - - - - - - 35.2 0459 12.8
3/7/24 58.9 1509 42.9 0509 0.07 0.07 7.18 0.112 1.03 376 25.6 0905 WNW | 290 201.4 37.6 89 36 30.03 2339 29.72 1513 56.5 - 0.83 1857 0.01 1900 0.05 1907 0.06 1939 - - 35.7 0604 12.9
3/6/24 63.0 1358 36.1 0609 0.00 0.00 7.12 0.140 1.06 442 20.8 1557 NW | 324 115.6 29.4 78 23 29.96 0609 29.66 1455 56.3 - - - - - - - - - - - 33.2 0616 12.8
3/5/24 66.2 1419 37.4 0444 0.00 0.00 7.12 0.164 1.05 514 19.3 1032 NNW | 329 143.4 28.4 82 17 30.06 0545 29.80 1615 55.8 - - - - - - - - - - - 33.0 0443 12.8
3/4/24 64.4 1325 41.6 0015 0.00 0.00 7.12 0.174 1.03 508 35.5 0633 WNW | 299 303.5 32.5 71 23 29.99 2243 29.81 1350 55.8 - - - - - - - - - - - 33.0 0633 12.9
3/3/24 62.8 1245 42.1 0401 0.00 0.00 7.12 0.150 0.93 501 26.5 1400 NNW | 348 182.5 32.6 72 29 29.95 2357 29.76 1400 55.9 - - - - - - - - - - - 36.8 0310 12.8
3/2/24 65.2 1403 43.8 2352 0.00 0.00 7.12 0.164 0.88 378 40.3 0439 WSW | 238 261.7 33.5 70 28 29.94 0027 29.63 1438 56.3 - - - - - - - - - - - 39.4 2356 12.9
3/1/24 64.7 1450 37.3 0528 0.00 0.00 7.12 0.134 0.84 493 24.8 2357 SW | 227 85.7 32.7 84 24 30.11 0618 29.83 1607 55.7 - - - - - - - - - - - 33.6 0535 12.8
2/29/24 68.0 1410 37.3 0552 0.00 2.32 7.12 0.141 0.80 486 22.4 1450 NNW | 328 89.7 32.6 78 22 30.12 0614 29.89 1437 55.2 - - - - - - - - - - - 33.9 0623 12.8
2/28/24 66.2 1516 35.5 0551 0.00 2.32 7.12 0.129 0.77 483 18.4 1219 NE | 45 69.9 30.4 81 20 30.13 0632 29.89 1555 54.7 - - -